May 22, 2022

Time Code Weather Temp. Visibility Clouds Wind METAR/SPECI
1:00 am
V
68 °F 9 mi 13,000 ft 280°   280° 4 kt METAR CYHU 220500Z AUTO 28004KT 9SM FEW066 SCT092 SCT110 BKN130 20/16 A2994 RMK SLP140 DENSITY ALT 700FT
12:00 am
V
66 °F 9 mi - 240°   240° 3 kt METAR CYHU 220400Z AUTO 24003KT 9SM CLR 19/15 A2994 RMK LTNG DIST SE S SLP139 DENSITY ALT 700FT

May 21, 2022

Time Code Weather Temp. Visibility Clouds Wind METAR/SPECI
11:00 pm
V
68 °F 9 mi - 220°   220° 5 kt METAR CYHU 220300Z AUTO 22005KT 9SM CLR 20/15 A2993 RMK SLP138 DENSITY ALT 800FT
10:00 pm
V
70 °F 9 mi - 250°   250° 5 kt METAR CYHU 220200Z AUTO 25005KT 9SM CLR 21/15 A2992 RMK SLP133 DENSITY ALT 900FT
9:00 pm
V
72 °F 9 mi - 250°   250° 8 kt METAR CYHU 220100Z AUTO 25008KT 9SM CLR 22/15 A2989 RMK SLP124 DENSITY ALT 1000FT
8:00 pm
V
75 °F 9 mi - 270°   270° 14 23 kt METAR CYHU 220000Z AUTO 27014G23KT 9SM CLR 24/15 A2988 RMK SLP119 DENSITY ALT 1200FT
7:00 pm
V
79 °F 9 mi - Var   000° 0 kt METAR CYHU 212300Z AUTO /////KT 9SM CLR 26/14 A2985 RMK SLP110 DENSITY ALT 1500FT
6:16 pm
V
81 °F 9 mi - 300°   300° 19 kt METAR CYHU 212216Z AUTO 30019KT 9SM CLR 27/16 A2982 RMK LTNG DIST NE SE S WSHFT AT 2206Z PRESRR SLP099 DENSITY ALT 1600FT
6:00 pm
V
82 °F 9 mi - 230°   230° 13 19 kt METAR CYHU 212200Z AUTO 23013G19KT 9SM FEW055 28/19 A2981 RMK SLP095 DENSITY ALT 1700FT
5:00 pm
V
86 °F 9 mi - 240°   240° 27 32 kt METAR CYHU 212100Z AUTO 24027G32KT 9SM FEW091 30/19 A2982 RMK LTNG DIST NW SLP101 DENSITY ALT 2000FT
4:00 pm
V
90 °F 9 mi - 250°   250° 22 31 kt METAR CYHU 212000Z AUTO 25022G31KT 9SM FEW076 32/19 A2978 RMK SLP087 DENSITY ALT 2300FT
3:48 pm
V
90 °F 9 mi - 250°   250° 21 26 kt METAR CYHU 211948Z AUTO 25021G26KT 9SM SCT076 SCT085 32/20 A2978 RMK SLP086 DENSITY ALT 2300FT
3:00 pm
V
88 °F 9 mi 8,400 ft 210°   210° 10 kt METAR CYHU 211900Z AUTO 21010KT 9SM FEW055 OVC084 31/21 A2978 RMK SLP088 DENSITY ALT 2100FT
2:00 pm
V
88 °F 9 mi 5,500 ft 230°   230° 12 18 kt METAR CYHU 211800Z AUTO 23012G18KT 170V230 9SM BKN055 BKN085 31/20 A2980 RMK SLP092 DENSITY ALT 2100FT
1:00 pm
V
88 °F 9 mi - 190°   190° 11 19 kt METAR CYHU 211700Z AUTO 19011G19KT 9SM CLR 31/20 A2979 RMK SLP089 DENSITY ALT 2100FT
12:00 pm
V
86 °F 9 mi - 210°   210° 12 kt METAR CYHU 211600Z AUTO 21012KT 170V240 9SM CLR 30/20 A2980 RMK SLP092 DENSITY ALT 2000FT
11:00 am
V
81 °F 9 mi - 170°   170° 12 17 kt METAR CYHU 211500Z AUTO 17012G17KT 9SM CLR 27/19 A2981 RMK SLP096 DENSITY ALT 1700FT
10:00 am
V
77 °F 9 mi - 180°   180° 13 18 kt METAR CYHU 211400Z AUTO 18013G18KT 9SM CLR 25/18 A2982 RMK SLP099 DENSITY ALT 1400FT
9:00 am
V
73 °F 9 mi - 180°   180° 15 22 kt METAR CYHU 211300Z AUTO 18015G22KT 9SM CLR 23/18 A2983 RMK SLP103 DENSITY ALT 1200FT
8:00 am
V
70 °F 9 mi 6,600 ft 180°   180° 13 kt METAR CYHU 211200Z AUTO 18013KT 9SM OVC066 21/17 A2982 RMK SLP099 DENSITY ALT 900FT
7:00 am
V
68 °F 9 mi - 170°   170° 15 20 kt METAR CYHU 211100Z AUTO 17015G20KT 9SM SCT060 20/16 A2979 RMK SLP091 DENSITY ALT 900FT
6:00 am
V
68 °F 9 mi 6,000 ft 180°   180° 16 21 kt METAR CYHU 211000Z AUTO 18016G21KT 9SM BKN060 BKN089 20/16 A2978 RMK SLP086 DENSITY ALT 900FT
5:00 am
V
68 °F 9 mi 6,000 ft 180°   180° 17 24 kt METAR CYHU 210900Z AUTO 18017G24KT 9SM FEW045 BKN060 BKN074 OVC120 20/16 A2976 RMK SLP079 DENSITY ALT 900FT
4:00 am
V
68 °F 9 mi 5,500 ft 180°   180° 15 22 kt METAR CYHU 210800Z AUTO 18015G22KT 9SM BKN055 OVC072 20/16 A2974 RMK SLP074 DENSITY ALT 900FT
3:00 am
V
68 °F 9 mi 6,000 ft 180°   180° 17 24 kt METAR CYHU 210700Z AUTO 18017G24KT 9SM BKN060 20/15 A2974 RMK SLP073 DENSITY ALT 900FT
2:00 am
V
68 °F 9 mi - 180°   180° 15 23 kt METAR CYHU 210600Z AUTO 18015G23KT 9SM CLR 20/15 A2975 RMK SLP075 DENSITY ALT 900FT
1:00 am
V
70 °F 9 mi - 180°   180° 15 kt METAR CYHU 210500Z AUTO 18015KT 9SM CLR 21/15 A2976 RMK SLP080 DENSITY ALT 1000FT
12:00 am
V
72 °F 9 mi - 180°   180° 15 21 kt METAR CYHU 210400Z AUTO 18015G21KT 9SM CLR 22/15 A2976 RMK SLP080 DENSITY ALT 1100FT

May 20, 2022

Time Code Weather Temp. Visibility Clouds Wind METAR/SPECI
11:00 pm
V
73 °F 9 mi - 180°   180° 17 26 kt METAR CYHU 210300Z AUTO 18017G26KT 9SM CLR 23/14 A2976 RMK SLP079 DENSITY ALT 1300FT
10:00 pm
V
75 °F 9 mi 7,100 ft 180°   180° 19 26 kt METAR CYHU 210200Z AUTO 18019G26KT 9SM OVC071 24/14 A2973 RMK SLP070 DENSITY ALT 1400FT
9:00 pm
V
75 °F 9 mi - 180°   180° 17 30 kt METAR CYHU 210100Z AUTO 18017G30KT 9SM CLR 24/14 A2971 RMK SLP064 DENSITY ALT 1400FT
8:00 pm
V
77 °F 9 mi - 180°   180° 16 28 kt METAR CYHU 210000Z AUTO 18016G28KT 9SM SCT076 25/15 A2972 RMK SLP066 DENSITY ALT 1500FT
7:00 pm
V
79 °F 9 mi - 180°   180° 20 31 kt METAR CYHU 202300Z AUTO 18020G31KT 9SM FEW076 26/14 A2969 RMK SLP057 DENSITY ALT 1600FT
6:00 pm
V
79 °F 9 mi - 180°   180° 18 32 kt METAR CYHU 202200Z AUTO 18018G32KT 9SM CLR 26/14 A2969 RMK SLP055 DENSITY ALT 1700FT
5:00 pm
V
79 °F 9 mi - 180°   180° 16 29 kt METAR CYHU 202100Z AUTO 18016G29KT 9SM CLR 26/14 A2972 RMK SLP067 DENSITY ALT 1700FT
4:00 pm
V
79 °F 9 mi - 160°   160° 15 21 kt METAR CYHU 202000Z AUTO 16015G21KT 9SM CLR 26/13 A2973 RMK SLP071 DENSITY ALT 1600FT
3:00 pm
V
77 °F 9 mi - 160°   160° 18 24 kt METAR CYHU 201900Z AUTO 16018G24KT 9SM CLR 25/12 A2976 RMK SLP079 DENSITY ALT 1500FT
2:00 pm
V
73 °F 9 mi - 160°   160° 18 25 kt METAR CYHU 201800Z AUTO 16018G25KT 9SM CLR 23/12 A2978 RMK SLP088 DENSITY ALT 1200FT
1:00 pm
V
70 °F 9 mi - 160°   160° 16 27 kt METAR CYHU 201700Z AUTO 16016G27KT 9SM CLR 21/12 A2983 RMK SLP102 DENSITY ALT 900FT
12:00 pm
V
66 °F 9 mi - 160°   160° 15 21 kt METAR CYHU 201600Z AUTO 16015G21KT 9SM FEW120 19/12 A2985 RMK SLP111 DENSITY ALT 700FT
11:00 am
V
63 °F 9 mi - 140°   140° 14 kt METAR CYHU 201500Z AUTO 14014KT 9SM SCT130 17/11 A2989 RMK SLP123 DENSITY ALT 400FT
10:25 am
V
59 °F 9 mi - 170°   170° 10 kt METAR CYHU 201425Z AUTO 17010KT 9SM SCT017 15/12 A2989 RMK SLP122 DENSITY ALT 200FT
10:00 am
M
59 °F 9 mi 1,700 ft 160°   160° 9 16 kt METAR CYHU 201400Z AUTO 16009G16KT 9SM BKN017 BKN120 15/11 A2990 RMK SLP126 DENSITY ALT 200FT
9:00 am
M
55 °F 9 mi 1,500 ft 150°   150° 10 15 kt METAR CYHU 201300Z AUTO 15010G15KT 130V190 9SM BKN015 BKN120 13/10 A2988 RMK SLP120
8:59 am
M
57 °F 9 mi 1,500 ft 140°   140° 11 kt METAR CYHU 201259Z AUTO 14011KT 130V190 9SM BKN015 BKN120 14/11 A2988 RMK SLP119
8:00 am
V
55 °F 9 mi 13,000 ft 160°   160° 6 kt METAR CYHU 201200Z AUTO 16006KT 9SM OVC130 13/11 A2988 RMK SLP120
7:00 am
V
52 °F 7 mi - 180°   180° 6 kt METAR CYHU 201100Z AUTO 18006KT 7SM CLR 11/10 A2988 RMK SLP120
6:54 am
V
52 °F 6 mi - 170°   170° 5 kt METAR CYHU 201054Z AUTO 17005KT 6SM BR CLR 11/10 A2987 RMK SLP119
6:18 am
I
50 °F 3 mi - 170°   170° 3 kt METAR CYHU 201018Z AUTO 17003KT 3SM BR CLR 10/09 A2987 RMK SLP118
6:00 am
I
48 °F 2¼ mi - 160°   160° 4 kt METAR CYHU 201000Z AUTO 16004KT 2 1/4SM BR CLR 09/09 A2986 RMK SLP113
5:41 am
I
48 °F 2 mi - 130°   130° 5 kt METAR CYHU 200941Z AUTO 13005KT 2SM BR SCT026 09/08 A2984 RMK SLP109
5:25 am
I
48 °F 1¾ mi 2,600 ft 120°   120° 3 kt METAR CYHU 200925Z AUTO 12003KT 1 3/4SM R24R/3000V5500FT/ BR BKN026 09/08 A2984 RMK SLP107
5:21 am
I
48 °F 2¼ mi 2,600 ft 110°   110° 3 kt METAR CYHU 200921Z AUTO 11003KT 2 1/4SM R24R/2600V4500FT/ BR BKN026 09/09 A2983 RMK SLP106
5:00 am
M
50 °F 4 mi - 120°   120° 3 kt METAR CYHU 200900Z AUTO 12003KT 4SM BR FEW028 10/09 A2983 RMK SLP104
4:53 am
V
50 °F 5 mi - 140°   140° 3 kt METAR CYHU 200853Z AUTO 14003KT 5SM BR FEW028 SCT044 10/10 A2983 RMK SLP105
4:26 am
V
52 °F 6 mi 4,400 ft 180°   180° 3 kt METAR CYHU 200826Z AUTO 18003KT 6SM BR SCT009 SCT026 OVC044 11/10 A2983 RMK SLP106
4:24 am
M
52 °F 6 mi 2,600 ft 190°   190° 3 kt METAR CYHU 200824Z AUTO 19003KT 140V210 6SM BR SCT009 BKN026 OVC042 11/10 A2983 RMK SLP106
4:08 am
I
52 °F 3 mi 700 ft 200°   200° 3 kt METAR CYHU 200808Z AUTO 20003KT 3SM BR BKN007 OVC026 11/10 A2984 RMK SLP107
3:28 am
I
50 °F 3 mi 500 ft 110°   110° 3 kt METAR CYHU 200728Z AUTO 11003KT 3SM BR BKN005 BKN026 BKN046 10/10 A2982 RMK PRESRR SLP100
3:18 am
I
50 °F 3 mi 4,600 ft 100°   100° 3 kt METAR CYHU 200718Z AUTO 10003KT 3SM BR FEW005 SCT024 BKN046 10/10 A2981 RMK SLP096
3:15 am
I
50 °F 3 mi 4,600 ft 110°   110° 3 kt METAR CYHU 200715Z AUTO 11003KT 3SM BR SCT024 BKN046 10/10 A2980 RMK SLP095
3:00 am
I
50 °F 3 mi 2,400 ft 120°   120° 2 kt METAR CYHU 200700Z AUTO 12002KT 3SM BR BKN024 OVC048 10/10 A2980 RMK SLP094
2:51 am
I
50 °F 3 mi 2,400 ft 100°   100° 3 kt METAR CYHU 200651Z AUTO 10003KT 3SM BR BKN024 OVC048 10/10 A2979 RMK SLP092
2:33 am
I
50 °F 2½ mi 2,200 ft Var   000° 0 kt METAR CYHU 200633Z AUTO 00000KT 2 1/2SM BR BKN022 OVC048 10/09 A2981 RMK SLP096
2:26 am
I
50 °F 2½ mi 5,000 ft Var   000° 0 kt METAR CYHU 200626Z AUTO 00000KT 2 1/2SM BR SCT020 OVC050 10/10 A2981 RMK SLP096
2:00 am
I
50 °F 3 mi 5,000 ft Var   000° 0 kt METAR CYHU 200600Z AUTO 00000KT 3SM BR SCT016 OVC050 10/10 A2980 RMK SLP093
1:21 am
V
52 °F 5 mi 5,000 ft 180°   180° 2 kt METAR CYHU 200521Z AUTO 18002KT 5SM BR FEW014 OVC050 11/10 A2980 RMK SLP093
1:14 am
V
52 °F 6 mi 5,000 ft Var   000° 0 kt METAR CYHU 200514Z AUTO 00000KT 6SM BR SCT014 OVC050 11/10 A2980 RMK SLP093
1:00 am
M
52 °F 6 mi 1,400 ft 210°   210° 3 kt METAR CYHU 200500Z AUTO 21003KT 6SM BR BKN014 BKN019 OVC050 11/10 A2980 RMK SLP093
12:48 am
M
52 °F 6 mi 1,800 ft 210°   210° 3 kt METAR CYHU 200448Z AUTO 21003KT 6SM BR BKN018 OVC048 11/10 A2980 RMK SLP094
Older data

Download our app

Easy access to all aviation weather on your mobile phone and tablet.
With many features not available on the website, like offline support and a personal airport list.

We and third parties follow your internet behavior on our website with cookies. If you continue, we assume you agree with our cookie policy. Learn more